METAR Data
IDs: Format: Raw Decoded Include TAF

Data at: 1310 UTC 24 May 2022

KPEZ 241255Z AUTO 00000KT 10SM CLR 21/19 A2978 RMK AO2 T02070188